• Join FlightAware (Why Join?)
  • Login
  • US Flag 
08:58AM EST


 

Airport Tracker/Info


-or-


 

Live Flight TrackerFlight Track Log ✈ EJA831 ✈ 2013년 Jun 20일 ✈ KSFZ - KTEB

Flight Track Log - Related Links

Times and Time Zones

All times are in EDT time to prevent confusion due to time zone crossing. See the EJA831 flight status page for this flight to view local times or setup timezone preferences in your user account.

Time Position Orientation Groundspeed Altitude Reporting Facility
EDT Latitude Longitude Course Direction KTS MPH feet Rate Location/Type
08:33AM 41.9653 -71.5300 291° West 200 230 3,600  Level Boston Center
08:34AM 41.9619 -71.6164 267° West 216 249 8,100 4,020 Climbing Boston Center
08:35AM 41.9603 -71.7058 269° West 253 291 12,000 2,940 Climbing Boston Center
08:36AM 41.9589 -71.8258 269° West 278 320 14,000 960 Climbing Boston Center
08:37AM 42.0291 -72.1997 289° West  Level FlightAware Approximate
08:37AM 41.9783 -71.9458 282° West 322 371 14,000  Level Boston Center
08:38AM 42.0571 -72.3164 291° West  Level FlightAware Approximate
08:38AM 42.0036 -72.0489 288° West 327 376 14,000  Level Boston Center
08:39AM 42.0353 -72.1772 288° West 332 382 14,000  Level Boston Center
08:40AM 42.0606 -72.2836 288° West 332 382 14,000  Level Boston Center
08:41AM 42.0897 -72.4092 287° West 326 375 14,000  Level Boston Center
08:42AM 42.1147 -72.5128 288° West 320 368 14,000  Level Boston Center
08:43AM 42.1417 -72.6389 286° West 320 368 14,000  Level Boston Center
08:44AM 42.1603 -72.7567 282° West 320 368 14,000  Level Boston Center
08:45AM 42.1517 -72.8631 264° West 320 368 14,000  Level Boston Center
08:46AM 42.1303 -72.9972 258° West 330 380 14,000  Level Boston Center
08:47AM 42.1047 -73.1033 252° West 336 387 14,000  Level Boston Center
08:48AM 42.0747 -73.2317 253° West 336 387 14,000  Level Boston Center
08:49AM 42.0508 -73.3375 253° West 336 387 14,000  Level Boston Center
08:50AM 42.0164 -73.4822 252° West 341 392 14,000  Level Boston Center
08:51AM 41.9839 -73.6103 251° West 341 392 14,000 -180 Level Boston Center
08:52AM 41.9575 -73.7214 252° West 341 392 13,700 -1,020 Descending Boston Center
08:53AM 41.9206 -73.8436 248° West 335 386 12,000 -1,560 Descending Boston Center
08:54AM 41.8656 -73.9231 227° Southwest 335 386 10,600 -1,020 Descending Boston Center
08:55AM 41.8017 -74.0192 228° Southwest 323 372 10,000 -300 Descending Boston Center
08:56AM 41.7400 -74.1067 227° Southwest 323 372 10,000 -60 Level Boston Center
08:57AM 41.6889 -74.1831 228° Southwest 318 366 9,900 -840 Descending Boston Center
08:58AM 41.6333 -74.2678 229° Southwest 291 335 8,400 -1,440 Descending Boston Center
08:59AM 41.5800 -74.3300 221° Southwest 286 329 7,100 -720 Descending Boston Center
09:00AM 41.5144 -74.4003 219° Southwest 281 323 7,000 -60 Descending Boston Center
09:01AM 41.4633 -74.4567 220° Southwest 276 318 7,000 -720 Level Boston Center
09:03AM 41.3333 -74.5333 204° Southwest 278 320 5,000 -780 Descending New York TRACON
09:05AM 41.2333 -74.3833 132° Southeast 270 311 4,000 -600 Descending New York TRACON
09:06AM 41.1833 -74.3000 129° Southeast 271 312 3,200 -540 Descending New York TRACON
09:07AM 41.1333 -74.2333 135° Southeast 261 300 3,000 -120 Descending New York TRACON
09:08AM 41.1000 -74.1667 124° Southeast 261 300 3,000 -360 Level New York TRACON
09:09AM 41.0500 -74.0833 128° Southeast 265 305 2,300 -540 Descending New York TRACON
09:10AM 41.0000 -74.0500 153° Southeast 232 267 2,000 -420 Descending New York TRACON
09:11AM 40.9333 -74.0500 180° South 196 226 1,500 -600 Descending New York TRACON
09:12AM 40.9000 -74.0500 180° South 162 186 800 -780 Descending New York TRACON